Current Weather

Kerrville Muni/Louis Schreiner Fld

Kerrville, Texas (KERV)

Report from: Friday, March 1, 2024 1:15 PM CST
Current time: Friday, March 1, 2024 1:49 PM CST

Nearby weather – Weather history – Daily summaries
Weather forecast

Temperature22.3°C (72.1°F)
Dew point6.5°C (43.7°F)
Winds 7 kts (3.6 m/s, 8.1 mph) Southeast (130°)
Visibility10 mi. (16.1 km)
Clouds Sky clear
Altimeter30.06 in.Hg (1018 mB)
Relative humidity36 %
Density altitude835 ft. (254 m)
Remarks Fully automated report
Automated weather observing station with precipitation discriminator
Flight conditions Visual Meteorological Conditions
Raw dataKERV 011915Z AUTO 13007KT 10SM CLR 22/07 A3006 RMK AO2 T02230065
An unhandled exception has occurred. See browser dev tools for details. Reload 🗙